Time;durP1;ratioP1;P1;durP2;ratioP2;P2;SDS_P1;SDS_P2;PMS_P1;PMS_P2;Temp;Humidity;BMP_temperature;BMP_pressure;BME280_temperature;BME280_humidity;BME280_pressure;Samples;Min_cycle;Max_cycle;Signal;HPM_P1;HPM_P2
2022/10/22 00:09:35;;;;;;;16.33;3.50;;;15.80;62.80;;;;;;5092781;28;20960;-84
2022/10/22 00:12:35;;;;;;;12.73;3.10;;;15.80;58.20;;;;;;5088804;28;20407;-91
2022/10/22 00:15:52;;;;;;;17.13;3.80;;;15.80;58.60;;;;;;5075776;28;20175;-92
2022/10/22 00:25:02;;;;;;;21.43;3.40;;;15.90;55.40;;;;;;5076568;28;20415;-92
2022/10/22 00:31:23;;;;;;;19.80;4.40;;;15.90;62.60;;;;;;5089467;28;20562;-92
2022/10/22 00:37:11;;;;;;;10.60;3.57;;;15.90;63.40;;;;;;5091306;28;20817;-92
2022/10/22 00:43:05;;;;;;;12.30;3.33;;;16.00;51.70;;;;;;5087040;28;20237;-84
2022/10/22 00:45:30;;;;;;;12.17;3.20;;;16.00;47.40;;;;;;5074500;28;20385;-83
2022/10/22 00:54:41;;;;;;;5.83;3.80;;;15.90;47.30;;;;;;5088956;28;20392;-83
2022/10/22 01:00:30;;;;;;;8.07;2.73;;;15.90;47.40;;;;;;5082849;28;20982;-83
2022/10/22 01:06:30;;;;;;;6.30;3.10;;;15.80;47.00;;;;;;5090803;28;20471;-83
2022/10/22 01:12:24;;;;;;;10.40;3.47;;;15.90;47.20;;;;;;5075446;28;20459;-83
2022/10/22 01:21:55;;;;;;;8.10;2.80;;;15.90;47.10;;;;;;5076149;28;20422;-83
2022/10/22 01:28:01;;;;;;;16.13;2.77;;;15.80;47.10;;;;;;5078733;28;20463;-90
2022/10/22 01:33:52;;;;;;;10.17;2.60;;;15.80;47.10;;;;;;5075268;28;20409;-91
2022/10/22 01:36:53;;;;;;;10.53;2.60;;;15.70;47.00;;;;;;5079594;28;20392;-91
2022/10/22 01:43:10;;;;;;;6.63;2.27;;;15.70;47.00;;;;;;5077205;28;20468;-92
2022/10/22 01:45:41;;;;;;;6.67;2.13;;;15.70;46.90;;;;;;5074520;28;20429;-83
2022/10/22 01:48:53;;;;;;;6.23;2.20;;;15.70;47.00;;;;;;5072652;28;20412;-83
2022/10/22 02:01:36;;;;;;;3.40;2.10;;;15.60;46.80;;;;;;5087373;28;20451;-83
2022/10/22 02:04:10;;;;;;;3.97;1.97;;;15.60;46.90;;;;;;5077782;28;20815;-83
2022/10/22 02:09:59;;;;;;;8.43;2.00;;;15.60;46.90;;;;;;5093987;28;20451;-84
2022/10/22 02:13:16;;;;;;;8.43;2.20;;;15.60;46.90;;;;;;5091552;28;20466;-83
2022/10/22 02:15:49;;;;;;;4.43;1.70;;;15.60;46.90;;;;;;5074494;28;20456;-91
2022/10/22 02:21:37;;;;;;;7.63;1.73;;;15.50;46.80;;;;;;5082726;28;20384;-92
2022/10/22 02:37:30;;;;;;;3.43;1.60;;;15.50;46.70;;;;;;5080075;28;20423;-83
2022/10/22 02:46:41;;;;;;;9.23;2.00;;;15.60;32.50;;;;;;5092299;28;20412;-83
2022/10/22 02:49:46;;;;;;;6.73;1.63;;;15.60;29.40;;;;;;5071890;28;20504;-83
2022/10/22 02:55:53;;;;;;;3.23;1.27;;;15.60;30.70;;;;;;5077592;28;20430;-83
2022/10/22 03:05:03;;;;;;;4.30;1.60;;;15.70;24.70;;;;;;5080780;28;20454;-91
2022/10/22 03:10:50;;;;;;;4.57;1.50;;;15.70;25.40;;;;;;5074210;28;20396;-92
2022/10/22 03:16:38;;;;;;;4.50;1.57;;;15.70;24.20;;;;;;5081702;28;20198;-83
2022/10/22 03:19:17;;;;;;;3.23;1.37;;;15.70;20.80;;;;;;5092966;28;20364;-83
2022/10/22 03:22:16;;;;;;;9.33;1.40;;;15.70;19.10;;;;;;5080950;28;20166;-83
2022/10/22 03:31:26;;;;;;;21.57;1.50;;;15.60;17.90;;;;;;5072966;28;20384;-83
2022/10/22 03:33:53;;;;;;;5.90;1.50;;;15.50;17.50;;;;;;5079195;28;20520;-83
2022/10/22 03:40:11;;;;;;;11.87;1.50;;;15.60;21.70;;;;;;5082866;28;20741;-83
2022/10/22 03:45:59;;;;;;;9.90;1.50;;;15.60;22.40;;;;;;5077341;28;20424;-91
2022/10/22 03:48:36;;;;;;;3.87;1.60;;;15.60;21.40;;;;;;5076540;28;20453;-92
2022/10/22 03:51:25;;;;;;;6.07;1.47;;;15.60;22.50;;;;;;5085558;28;20182;-92
2022/10/22 03:54:22;;;;;;;17.33;1.90;;;15.70;22.80;;;;;;5084769;28;20441;-92
2022/10/22 03:57:10;;;;;;;12.80;1.83;;;15.70;23.10;;;;;;5093056;28;20748;-91
2022/10/22 03:59:39;;;;;;;6.00;1.73;;;15.70;22.40;;;;;;5095039;28;20415;-84
2022/10/22 04:05:27;;;;;;;8.90;1.60;;;15.80;23.30;;;;;;5076309;28;20425;-83
2022/10/22 04:08:22;;;;;;;9.63;1.30;;;15.80;22.80;;;;;;5076646;28;20953;-83
2022/10/22 04:14:23;;;;;;;2.23;1.60;;;15.70;23.30;;;;;;5083424;28;20408;-83
2022/10/22 04:17:22;;;;;;;7.23;1.37;;;15.70;25.20;;;;;;5076034;28;20408;-83
2022/10/22 04:19:53;;;;;;;8.43;1.20;;;15.70;24.00;;;;;;5080874;28;20436;-83
2022/10/22 04:22:29;;;;;;;7.40;1.73;;;15.60;24.30;;;;;;5086904;28;20915;-84
2022/10/22 04:24:55;;;;;;;15.27;1.73;;;15.60;26.70;;;;;;5074759;28;20519;-83
2022/10/22 04:28:10;;;;;;;3.30;1.37;;;15.60;26.90;;;;;;5086503;28;20394;-83
2022/10/22 04:31:25;;;;;;;2.83;1.30;;;15.60;22.80;;;;;;5089941;28;20186;-92
2022/10/22 04:37:23;;;;;;;4.17;1.30;;;15.60;23.40;;;;;;5014830;28;20383;-92
2022/10/22 04:40:22;;;;;;;3.43;1.00;;;15.60;24.30;;;;;;4993944;28;20439;-92
2022/10/22 04:42:59;;;;;;;3.37;1.60;;;15.50;23.00;;;;;;4994587;28;20409;-91
2022/10/22 04:45:26;;;;;;;6.83;1.50;;;15.50;25.20;;;;;;5000923;28;21192;-92
2022/10/22 04:47:51;;;;;;;5.13;1.40;;;15.50;24.20;;;;;;4990328;28;20512;-91
2022/10/22 04:50:23;;;;;;;1.27;1.00;;;15.60;23.60;;;;;;4998222;28;20446;-92
2022/10/22 04:53:16;;;;;;;4.93;1.67;;;15.50;23.30;;;;;;4986481;28;20735;-90
2022/10/22 04:55:53;;;;;;;9.70;1.70;;;15.50;25.10;;;;;;4994617;28;20402;-80
2022/10/22 04:58:23;;;;;;;1.80;0.93;;;15.60;22.60;;;;;;5013318;28;20435;-81
2022/10/22 05:00:48;;;;;;;4.00;1.40;;;15.60;20.10;;;;;;5006356;28;20448;-73
2022/10/22 05:03:14;;;;;;;9.77;1.83;;;15.40;23.70;;;;;;5005841;28;20937;-73
2022/10/22 05:05:40;;;;;;;1.80;1.70;;;15.40;27.40;;;;;;5011148;28;20619;-73
2022/10/22 05:08:11;;;;;;;6.23;1.97;;;15.40;27.30;;;;;;5011676;28;20636;-73
2022/10/22 05:10:36;;;;;;;5.90;1.70;;;15.40;26.90;;;;;;5060213;28;20518;-73
2022/10/22 05:13:11;;;;;;;13.40;1.67;;;15.50;24.60;;;;;;5084955;28;20430;-73
2022/10/22 05:15:36;;;;;;;11.47;1.30;;;15.50;23.30;;;;;;5083600;28;20253;-72
2022/10/22 05:18:02;;;;;;;13.40;2.63;;;15.40;23.00;;;;;;5081209;28;20519;-72
2022/10/22 05:20:28;;;;;;;14.63;1.77;;;15.40;25.10;;;;;;5076363;28;20175;-72
2022/10/22 05:22:53;;;;;;;6.70;1.47;;;15.40;25.40;;;;;;5074634;28;20187;-72
2022/10/22 05:25:19;;;;;;;4.77;1.07;;;15.50;24.80;;;;;;5074800;28;20197;-72
2022/10/22 05:27:49;;;;;;;8.93;1.23;;;15.40;23.60;;;;;;5076258;28;20167;-71
2022/10/22 05:30:17;;;;;;;4.47;1.40;;;15.30;26.90;;;;;;5088267;28;20285;-72
2022/10/22 05:32:43;;;;;;;6.87;2.00;;;15.30;27.70;;;;;;5089024;28;20868;-74
2022/10/22 05:35:09;;;;;;;3.10;1.10;;;15.30;29.30;;;;;;5076751;28;20468;-73
2022/10/22 05:37:34;;;;;;;3.60;1.10;;;15.20;28.30;;;;;;5082938;28;20412;-73
2022/10/22 05:40:05;;;;;;;1.57;1.10;;;15.30;28.30;;;;;;5081272;28;20178;-73
2022/10/22 05:42:35;;;;;;;6.17;1.27;;;15.30;28.50;;;;;;5079742;28;20229;-73
2022/10/22 05:45:00;;;;;;;2.37;1.63;;;15.40;27.70;;;;;;5076932;28;20920;-73
2022/10/22 05:47:28;;;;;;;4.40;1.00;;;15.40;25.50;;;;;;5084165;28;20529;-72
2022/10/22 05:49:56;;;;;;;5.90;1.37;;;15.40;23.90;;;;;;5074636;28;20203;-72
2022/10/22 05:52:22;;;;;;;1.20;1.10;;;15.40;23.20;;;;;;5074833;28;20443;-72
2022/10/22 05:54:48;;;;;;;1.70;1.40;;;15.30;23.90;;;;;;5090278;28;20421;-71
2022/10/22 05:57:13;;;;;;;1.23;1.10;;;15.30;28.00;;;;;;5077079;28;21067;-72
2022/10/22 05:59:39;;;;;;;1.60;1.20;;;15.30;26.70;;;;;;5078611;28;20182;-72
2022/10/22 06:02:11;;;;;;;5.33;1.13;;;15.40;24.10;;;;;;5083505;28;20186;-74
2022/10/22 06:04:37;;;;;;;4.60;1.17;;;15.40;25.10;;;;;;5087588;28;20178;-73
2022/10/22 06:07:03;;;;;;;2.13;1.60;;;15.40;23.80;;;;;;5088139;28;20391;-73
2022/10/22 06:09:34;;;;;;;9.80;1.37;;;15.40;21.50;;;;;;5077546;28;20198;-73
2022/10/22 06:12:00;;;;;;;1.90;1.30;;;15.40;23.10;;;;;;5080457;28;20402;-73
2022/10/22 06:14:26;;;;;;;10.57;1.17;;;15.40;22.50;;;;;;5074132;28;20482;-73
2022/10/22 06:16:53;;;;;;;9.10;1.40;;;15.40;19.80;;;;;;5087831;28;20470;-73
2022/10/22 06:19:25;;;;;;;2.53;1.10;;;15.30;17.30;;;;;;5076682;28;20411;-73
2022/10/22 06:21:51;;;;;;;2.50;1.30;;;15.20;15.80;;;;;;5078030;28;20437;-73
2022/10/22 06:24:23;;;;;;;5.23;1.20;;;15.20;16.20;;;;;;5086040;28;20403;-73
2022/10/22 06:26:50;;;;;;;2.50;1.23;;;15.00;18.10;;;;;;5074316;28;20195;-73
2022/10/22 06:29:16;;;;;;;4.50;1.30;;;15.00;17.70;;;;;;5080149;28;20535;-73
2022/10/22 06:31:42;;;;;;;2.57;1.10;;;15.00;17.90;;;;;;5078340;28;21220;-72
2022/10/22 06:34:11;;;;;;;6.33;1.00;;;14.90;20.20;;;;;;5074672;28;20460;-72
2022/10/22 06:36:37;;;;;;;1.47;1.10;;;14.90;22.80;;;;;;5089113;28;20183;-72
2022/10/22 06:39:04;;;;;;;3.93;1.30;;;14.70;23.80;;;;;;5092279;28;20878;-72
2022/10/22 06:41:30;;;;;;;1.17;1.17;;;14.70;27.10;;;;;;5085712;28;20468;-72
2022/10/22 06:43:56;;;;;;;4.50;1.40;;;14.70;27.60;;;;;;5078560;28;20429;-72
2022/10/22 06:46:23;;;;;;;5.77;1.03;;;14.70;27.50;;;;;;5082126;28;20471;-72
2022/10/22 06:48:56;;;;;;;3.20;1.47;;;14.60;31.50;;;;;;5073082;28;20428;-72
2022/10/22 06:51:23;;;;;;;1.43;1.20;;;14.60;35.10;;;;;;5079156;28;20428;-72
2022/10/22 06:53:54;;;;;;;1.70;1.20;;;14.50;40.30;;;;;;5082887;28;20783;-71
2022/10/22 06:56:21;;;;;;;3.40;1.53;;;14.50;45.90;;;;;;5077953;28;20383;-71
2022/10/22 06:58:52;;;;;;;4.30;1.00;;;14.40;45.80;;;;;;5080911;28;20436;-72
2022/10/22 07:01:20;;;;;;;1.77;1.10;;;14.40;45.80;;;;;;5085956;28;20442;-71
2022/10/22 07:03:45;;;;;;;2.50;1.20;;;14.40;45.80;;;;;;5085074;28;20842;-72
2022/10/22 07:06:13;;;;;;;1.97;1.20;;;14.50;45.90;;;;;;5073239;28;20475;-72
2022/10/22 07:08:40;;;;;;;1.83;1.30;;;14.40;49.90;;;;;;5076280;28;20815;-72
2022/10/22 07:11:27;;;;;;;2.07;1.50;;;14.40;45.80;;;;;;5085533;28;20441;-72
2022/10/22 07:13:57;;;;;;;5.90;1.10;;;14.40;45.80;;;;;;5077659;28;20881;-72
2022/10/22 07:16:29;;;;;;;8.40;1.50;;;14.40;45.80;;;;;;5083580;28;20456;-72
2022/10/22 07:18:54;;;;;;;5.23;1.47;;;14.50;45.90;;;;;;5078880;28;21050;-72
2022/10/22 07:21:21;;;;;;;6.53;1.40;;;14.50;45.90;;;;;;5089554;28;20441;-72
2022/10/22 07:23:47;;;;;;;1.93;1.07;;;14.50;45.90;;;;;;5080434;28;20210;-72
2022/10/22 07:26:15;;;;;;;2.60;1.07;;;14.50;45.80;;;;;;5084153;28;20467;-72
2022/10/22 07:28:41;;;;;;;1.80;1.20;;;14.50;45.90;;;;;;5091740;28;20455;-72
2022/10/22 07:31:10;;;;;;;4.67;1.17;;;14.50;45.90;;;;;;5078906;28;20457;-72
2022/10/22 07:33:36;;;;;;;0.90;0.90;;;14.60;39.40;;;;;;5088475;28;20415;-73
2022/10/22 07:36:04;;;;;;;2.43;1.10;;;14.70;29.20;;;;;;5076481;28;20437;-74
2022/10/22 07:38:35;;;;;;;3.30;1.50;;;14.70;28.80;;;;;;5081009;28;20445;-74
2022/10/22 07:41:05;;;;;;;2.03;0.90;;;14.80;24.80;;;;;;5089355;28;20771;-74
2022/10/22 07:43:31;;;;;;;1.97;1.03;;;14.90;22.20;;;;;;5076488;28;20912;-74
2022/10/22 07:45:59;;;;;;;5.70;1.30;;;14.90;17.50;;;;;;5086117;28;20452;-72
2022/10/22 07:48:29;;;;;;;1.40;1.30;;;14.90;17.70;;;;;;5080954;28;20170;-75
2022/10/22 07:50:59;;;;;;;2.87;1.20;;;15.00;15.60;;;;;;5085849;28;20905;-75
2022/10/22 07:53:29;;;;;;;6.13;0.90;;;15.20;9.30;;;;;;5088393;28;20791;-76
2022/10/22 07:55:55;;;;;;;6.63;0.90;;;15.20;6.70;;;;;;5076385;28;20436;-74
2022/10/22 07:58:22;;;;;;;5.53;0.80;;;15.30;2.50;;;;;;5079921;28;20428;-74
2022/10/22 08:01:05;;;;;;;2.70;1.17;;;15.30;1.00;;;;;;5076630;28;20417;-73
2022/10/22 08:03:31;;;;;;;0.90;0.83;;;15.40;1.00;;;;;;5079107;28;20402;-76
2022/10/22 08:05:57;;;;;;;9.70;1.20;;;15.40;1.00;;;;;;5079768;28;20429;-74
2022/10/22 08:08:29;;;;;;;1.67;1.00;;;15.50;1.00;;;;;;5086110;28;20253;-74
2022/10/22 08:10:57;;;;;;;1.70;0.90;;;15.60;1.00;;;;;;5091091;28;20604;-74
2022/10/22 08:13:23;;;;;;;2.10;0.90;;;15.70;1.00;;;;;;5082634;28;20402;-75
2022/10/22 08:15:49;;;;;;;6.43;0.90;;;15.60;1.00;;;;;;5089337;28;20757;-74
2022/10/22 08:18:15;;;;;;;4.83;0.90;;;15.60;1.00;;;;;;5078460;28;20403;-72
2022/10/22 08:20:41;;;;;;;2.30;0.70;;;15.80;1.00;;;;;;5080360;28;20182;-72
2022/10/22 08:23:11;;;;;;;2.83;0.70;;;15.80;1.00;;;;;;5084090;28;20544;-72
2022/10/22 08:25:37;;;;;;;3.43;0.70;;;15.80;1.00;;;;;;5080616;28;20431;-72
2022/10/22 08:28:03;;;;;;;1.50;0.70;;;15.90;1.00;;;;;;5079038;28;20456;-72
2022/10/22 08:30:29;;;;;;;6.57;0.80;;;15.90;1.00;;;;;;5080070;28;20264;-72
2022/10/22 08:32:55;;;;;;;2.20;0.60;;;16.00;1.00;;;;;;5082995;28;20900;-72
2022/10/22 08:35:21;;;;;;;5.80;0.67;;;16.00;1.00;;;;;;5078868;28;20186;-72
2022/10/22 08:37:47;;;;;;;1.53;0.80;;;16.10;1.00;;;;;;5091770;28;20412;-72
2022/10/22 08:40:29;;;;;;;0.70;0.70;;;16.10;1.00;;;;;;5101813;28;20810;-72
2022/10/22 08:42:57;;;;;;;2.00;0.93;;;16.10;1.00;;;;;;5078722;28;20677;-72
2022/10/22 08:45:26;;;;;;;0.70;0.63;;;16.10;1.00;;;;;;5077680;28;20403;-72
2022/10/22 08:48:16;;;;;;;0.60;0.60;;;16.10;1.00;;;;;;5084322;28;20447;-72
2022/10/22 08:50:52;;;;;;;1.27;0.70;;;16.20;1.00;;;;;;5075873;28;20415;-72
2022/10/22 08:53:21;;;;;;;0.70;0.70;;;16.30;1.00;;;;;;5081439;28;20433;-72
2022/10/22 08:55:51;;;;;;;2.53;0.60;;;16.30;1.00;;;;;;5075768;28;20446;-72
2022/10/22 08:58:41;;;;;;;5.00;0.60;;;16.30;1.00;;;;;;5076437;28;20440;-72
2022/10/22 09:01:13;;;;;;;1.00;0.50;;;16.50;1.00;;;;;;5076266;28;20400;-72
2022/10/22 09:03:51;;;;;;;2.20;0.60;;;16.60;1.00;;;;;;5075356;28;20436;-72
2022/10/22 09:06:23;;;;;;;6.20;0.50;;;16.60;1.00;;;;;;5078368;28;20488;-73
2022/10/22 09:08:50;;;;;;;2.97;0.70;;;16.70;1.00;;;;;;5082281;28;20477;-73
2022/10/22 09:11:27;;;;;;;1.00;0.90;;;16.70;1.00;;;;;;5079673;28;20890;-73
2022/10/22 09:13:56;;;;;;;1.30;0.70;;;16.80;1.00;;;;;;5076272;28;20420;-72
2022/10/22 09:16:29;;;;;;;2.03;0.60;;;16.80;1.00;;;;;;5082432;28;20403;-73
2022/10/22 09:19:15;;;;;;;1.23;0.60;;;16.90;1.00;;;;;;5080727;28;20413;-73
2022/10/22 09:22:06;;;;;;;1.87;0.50;;;17.00;1.00;;;;;;5080469;28;20465;-73
2022/10/22 09:24:37;;;;;;;3.23;0.60;;;16.90;1.00;;;;;;5075070;28;20975;-75
2022/10/22 09:27:19;;;;;;;0.77;0.57;;;16.90;1.00;;;;;;5088160;28;20411;-74
2022/10/22 09:29:46;;;;;;;1.17;0.50;;;17.00;1.00;;;;;;5074614;28;20450;-77
2022/10/22 09:32:13;;;;;;;1.50;0.57;;;17.10;1.00;;;;;;5081952;28;20498;-74
2022/10/22 09:34:49;;;;;;;1.67;0.60;;;17.20;1.00;;;;;;5085907;28;20897;-74
2022/10/22 09:37:23;;;;;;;2.60;0.60;;;17.20;1.00;;;;;;5077696;28;20757;-75
2022/10/22 09:39:53;;;;;;;2.00;0.50;;;17.30;1.00;;;;;;5081542;28;20388;-75
2022/10/22 09:42:20;;;;;;;0.90;0.50;;;17.40;1.00;;;;;;5085451;28;20415;-74
2022/10/22 09:44:53;;;;;;;1.70;0.60;;;17.50;1.00;;;;;;5087480;28;20810;-74
2022/10/22 09:47:41;;;;;;;2.50;0.60;;;17.60;1.00;;;;;;5085592;28;20400;-74
2022/10/22 09:50:37;;;;;;;5.53;0.70;;;17.60;1.00;;;;;;5080467;28;20485;-72
2022/10/22 09:53:21;;;;;;;0.93;0.70;;;17.70;1.00;;;;;;5088009;28;20778;-72
2022/10/22 09:55:56;;;;;;;1.57;1.10;;;17.70;1.00;;;;;;5076637;28;20481;-73
2022/10/22 09:58:22;;;;;;;7.90;0.63;;;17.60;1.00;;;;;;5076497;28;20728;-73
2022/10/22 10:01:06;;;;;;;6.93;0.83;;;17.60;1.00;;;;;;5084646;28;20431;-72
2022/10/22 10:03:32;;;;;;;2.87;0.50;;;17.70;1.00;;;;;;5080094;28;20404;-72
2022/10/22 10:05:59;;;;;;;7.40;1.23;;;17.70;1.00;;;;;;5077247;28;20405;-72
2022/10/22 10:08:25;;;;;;;2.53;0.60;;;17.80;1.00;;;;;;5088832;28;20408;-72
2022/10/22 10:11:12;;;;;;;4.47;1.30;;;17.90;1.00;;;;;;5089068;28;20882;-72
2022/10/22 10:13:38;;;;;;;0.80;0.80;;;17.80;1.00;;;;;;5089263;28;20182;-72
2022/10/22 10:16:26;;;;;;;30.40;25.03;;;17.90;1.00;;;;;;5078565;28;20393;-72
2022/10/22 10:19:22;;;;;;;1.63;0.80;;;18.00;1.00;;;;;;5077776;28;20658;-74
2022/10/22 10:22:12;;;;;;;4.23;0.70;;;18.00;1.00;;;;;;5079261;28;20395;-74
2022/10/22 10:25:15;;;;;;;3.10;0.70;;;18.10;1.00;;;;;;5086650;28;20401;-74
2022/10/22 10:27:47;;;;;;;3.50;0.60;;;18.10;1.00;;;;;;5074921;28;20414;-74
2022/10/22 10:30:24;;;;;;;2.00;0.77;;;18.20;1.00;;;;;;5077748;28;20577;-75
2022/10/22 10:33:13;;;;;;;1.73;0.50;;;18.20;1.00;;;;;;5077363;28;20389;-75
2022/10/22 10:36:01;;;;;;;3.17;0.70;;;18.40;1.00;;;;;;5080935;28;20919;-75
2022/10/22 10:42:16;;;;;;;4.80;0.87;;;18.70;1.00;;;;;;5073457;28;20410;-74
2022/10/22 10:45:24;;;;;;;6.50;3.53;;;18.80;1.00;;;;;;5073716;28;20387;-75
2022/10/22 10:48:13;;;;;;;1.33;0.80;;;18.70;1.00;;;;;;5074019;28;20488;-75
2022/10/22 10:50:49;;;;;;;1.33;1.00;;;18.60;1.00;;;;;;5074456;28;20435;-76
2022/10/22 10:53:35;;;;;;;3.07;0.87;;;18.70;1.00;;;;;;5081266;28;20441;-75
2022/10/22 10:56:05;;;;;;;1.40;0.70;;;18.80;1.00;;;;;;5078568;28;20405;-75
2022/10/22 10:59:01;;;;;;;2.77;2.40;;;19.00;1.00;;;;;;5076967;28;20399;-75
2022/10/22 11:02:09;;;;;;;5.20;2.07;;;19.20;1.00;;;;;;4997383;28;20418;-75
2022/10/22 11:05:19;;;;;;;0.93;0.60;;;19.40;1.00;;;;;;4971689;28;20588;-75
2022/10/22 11:07:49;;;;;;;7.90;1.17;;;19.50;1.00;;;;;;4953154;29;20397;-75
2022/10/22 11:10:26;;;;;;;2.90;0.90;;;19.60;1.00;;;;;;4952923;29;20531;-75
2022/10/22 11:12:57;;;;;;;1.10;0.70;;;19.60;1.00;;;;;;4952763;28;20941;-75
2022/10/22 11:15:38;;;;;;;4.97;0.80;;;19.60;1.00;;;;;;4953090;29;20477;-75
2022/10/22 11:18:37;;;;;;;3.53;0.93;;;20.00;1.00;;;;;;4952961;28;20769;-75
2022/10/22 11:21:34;;;;;;;3.33;1.10;;;20.20;1.00;;;;;;4929665;29;20505;-72
2022/10/22 11:24:28;;;;;;;5.43;0.83;;;20.40;1.00;;;;;;4916518;29;20449;-72
2022/10/22 11:27:00;;;;;;;5.67;0.63;;;20.50;1.00;;;;;;4906162;29;20448;-72
2022/10/22 11:29:38;;;;;;;8.63;0.70;;;20.70;1.00;;;;;;4914504;29;21055;-72
2022/10/22 11:32:05;;;;;;;1.87;0.80;;;20.80;1.00;;;;;;4920893;29;20444;-72
2022/10/22 11:34:49;;;;;;;7.00;0.90;;;20.90;1.00;;;;;;4914622;29;20801;-75
2022/10/22 11:37:16;;;;;;;3.60;1.47;;;21.00;1.00;;;;;;4929731;28;20452;-74
2022/10/22 11:39:55;;;;;;;1.10;0.60;;;20.90;1.00;;;;;;4968737;28;20417;-75
2022/10/22 11:42:38;;;;;;;1.60;0.70;;;20.70;1.00;;;;;;4967374;28;20914;-75
2022/10/22 11:45:28;;;;;;;4.10;0.80;;;20.70;1.00;;;;;;4988195;28;20460;-76
2022/10/22 11:48:08;;;;;;;7.50;0.70;;;20.70;1.00;;;;;;4991030;28;20462;-75
2022/10/22 11:50:59;;;;;;;2.60;0.90;;;20.80;1.00;;;;;;4988209;28;20444;-76
2022/10/22 11:53:41;;;;;;;1.47;0.70;;;20.70;1.00;;;;;;4984910;28;20804;-76
2022/10/22 11:56:22;;;;;;;8.67;0.80;;;20.40;1.00;;;;;;4994971;28;20434;-76
2022/10/22 11:58:54;;;;;;;3.23;0.70;;;20.10;1.00;;;;;;5017831;28;20416;-76
2022/10/22 12:01:40;;;;;;;4.13;0.73;;;19.80;1.00;;;;;;5055467;28;20420;-78
2022/10/22 12:04:21;;;;;;;2.70;0.70;;;19.80;1.00;;;;;;5096912;28;20416;-73
2022/10/22 12:06:54;;;;;;;2.50;0.73;;;19.60;1.00;;;;;;5089562;28;20394;-72
2022/10/22 12:09:24;;;;;;;3.33;0.83;;;19.60;1.00;;;;;;5081954;28;20452;-73
2022/10/22 12:11:50;;;;;;;1.83;0.70;;;19.70;1.00;;;;;;5088959;28;20452;-72
2022/10/22 12:14:28;;;;;;;5.50;0.80;;;19.80;1.00;;;;;;5097508;28;20393;-72
2022/10/22 12:17:13;;;;;;;3.53;1.00;;;19.90;1.00;;;;;;5092047;28;20431;-72
2022/10/22 12:20:17;;;;;;;5.53;0.80;;;20.20;1.00;;;;;;5082857;28;20831;-76
2022/10/22 12:23:00;;;;;;;2.73;0.80;;;20.20;1.00;;;;;;5089149;28;20421;-77
2022/10/22 12:25:30;;;;;;;3.47;0.70;;;20.30;1.00;;;;;;5086602;28;20384;-77
2022/10/22 12:28:23;;;;;;;1.90;0.80;;;20.30;1.00;;;;;;5089752;28;20913;-76
2022/10/22 12:30:53;;;;;;;2.87;0.80;;;20.10;1.00;;;;;;5075947;28;20402;-76
2022/10/22 12:33:22;;;;;;;2.00;0.70;;;20.10;1.00;;;;;;5085625;28;20423;-77
2022/10/22 12:35:51;;;;;;;5.23;0.70;;;20.10;1.00;;;;;;5088858;28;20419;-72
2022/10/22 12:38:24;;;;;;;2.70;0.90;;;20.00;1.00;;;;;;5082364;28;20432;-72
2022/10/22 12:40:54;;;;;;;4.73;0.80;;;19.90;1.00;;;;;;5094017;28;20898;-72
2022/10/22 12:43:28;;;;;;;2.00;0.77;;;20.00;1.00;;;;;;5083114;28;20446;-72
2022/10/22 12:45:56;;;;;;;8.90;0.90;;;20.00;1.00;;;;;;5080645;28;20895;-72
2022/10/22 12:48:34;;;;;;;3.27;0.90;;;20.10;1.00;;;;;;5084696;28;20900;-72
2022/10/22 12:51:18;;;;;;;4.80;1.10;;;20.10;1.00;;;;;;5091124;28;20422;-76
2022/10/22 12:53:55;;;;;;;4.87;0.80;;;20.20;1.00;;;;;;5082948;28;20465;-77
2022/10/22 12:56:27;;;;;;;4.23;0.80;;;20.20;1.00;;;;;;5085827;28;20910;-76
2022/10/22 12:59:14;;;;;;;2.90;0.93;;;20.20;1.00;;;;;;5080357;28;20408;-77
2022/10/22 13:01:42;;;;;;;6.83;0.83;;;20.40;1.00;;;;;;5085433;28;20411;-75
2022/10/22 13:04:35;;;;;;;4.20;0.80;;;20.70;1.00;;;;;;5078052;28;20445;-76
2022/10/22 13:07:16;;;;;;;7.30;0.80;;;21.20;1.00;;;;;;5083672;28;20435;-75
2022/10/22 13:09:57;;;;;;;2.77;1.00;;;21.60;1.00;;;;;;5091171;28;20628;-76
2022/10/22 13:12:26;;;;;;;3.70;0.70;;;21.60;1.00;;;;;;5086554;28;20432;-77
2022/10/22 13:14:53;;;;;;;2.63;0.83;;;21.50;1.00;;;;;;5081439;28;20419;-76
2022/10/22 13:17:39;;;;;;;4.00;1.07;;;21.30;1.00;;;;;;5089957;28;20404;-76
2022/10/22 13:20:20;;;;;;;2.77;1.00;;;21.20;1.00;;;;;;5086815;28;20427;-71
2022/10/22 13:23:01;;;;;;;3.90;1.13;;;21.10;1.00;;;;;;5086658;28;20413;-72
2022/10/22 13:25:31;;;;;;;5.53;0.80;;;20.90;1.00;;;;;;5083049;28;20471;-72
2022/10/22 13:28:01;;;;;;;4.33;0.93;;;20.80;1.00;;;;;;5077881;28;20788;-72
2022/10/22 13:30:38;;;;;;;2.00;0.70;;;20.80;1.00;;;;;;5078169;28;20512;-72
2022/10/22 13:33:25;;;;;;;7.80;0.80;;;20.80;1.00;;;;;;5086895;28;20503;-72
2022/10/22 13:35:51;;;;;;;4.10;1.47;;;20.80;1.00;;;;;;5083288;28;20450;-72
2022/10/22 13:38:19;;;;;;;2.90;0.70;;;20.80;1.00;;;;;;5080759;28;20404;-72
2022/10/22 13:40:46;;;;;;;2.20;0.80;;;20.80;1.00;;;;;;5085873;28;20882;-72
2022/10/22 13:43:11;;;;;;;1.17;0.70;;;20.90;1.00;;;;;;5078429;28;20917;-72
2022/10/22 13:45:37;;;;;;;3.27;1.10;;;21.00;1.00;;;;;;5087997;28;20451;-72
2022/10/22 13:48:03;;;;;;;6.53;0.70;;;20.90;1.00;;;;;;5074153;28;20189;-72
2022/10/22 13:50:29;;;;;;;5.57;0.93;;;20.80;1.00;;;;;;5083229;28;20733;-76
2022/10/22 13:53:16;;;;;;;3.90;1.17;;;20.80;1.00;;;;;;5084901;28;20418;-79
2022/10/22 13:55:46;;;;;;;3.80;1.20;;;20.70;1.00;;;;;;5075837;28;20184;-76
2022/10/22 13:58:18;;;;;;;10.33;1.47;;;20.70;1.00;;;;;;5083611;28;20473;-75
2022/10/22 14:00:58;;;;;;;1.53;0.80;;;20.60;1.00;;;;;;5082146;28;20422;-75
2022/10/22 14:03:29;;;;;;;5.17;0.70;;;20.60;1.00;;;;;;5077319;28;20931;-75
2022/10/22 14:05:55;;;;;;;6.10;0.97;;;20.50;1.00;;;;;;5082030;28;20408;-75
2022/10/22 14:08:31;;;;;;;4.97;0.80;;;20.20;1.00;;;;;;5085783;28;20509;-75
2022/10/22 14:11:00;;;;;;;2.63;1.00;;;20.20;1.00;;;;;;5085634;28;20922;-75
2022/10/22 14:13:30;;;;;;;1.70;0.80;;;20.10;1.00;;;;;;5081495;28;20396;-75
2022/10/22 14:16:13;;;;;;;5.80;0.90;;;20.10;1.00;;;;;;5083948;28;20414;-75
2022/10/22 14:18:40;;;;;;;4.57;0.87;;;20.00;1.00;;;;;;5080139;28;20421;-75
2022/10/22 14:21:06;;;;;;;2.40;0.80;;;20.00;1.00;;;;;;5092157;28;20924;-72
2022/10/22 14:23:34;;;;;;;8.90;1.00;;;20.00;1.00;;;;;;5076226;28;20434;-73
2022/10/22 14:26:01;;;;;;;2.30;0.90;;;19.90;1.00;;;;;;5075925;28;20795;-74
2022/10/22 14:28:28;;;;;;;5.90;1.00;;;19.90;1.00;;;;;;5078742;28;20432;-74
2022/10/22 14:30:54;;;;;;;5.13;1.07;;;19.90;1.00;;;;;;5074248;28;20429;-71
2022/10/22 14:33:40;;;;;;;6.53;1.10;;;19.90;1.00;;;;;;5081277;28;20483;-74
2022/10/22 14:36:06;;;;;;;9.90;1.97;;;20.00;1.00;;;;;;5078327;28;20934;-73
2022/10/22 14:38:36;;;;;;;8.23;1.10;;;19.90;1.00;;;;;;5081364;28;20808;-74
2022/10/22 14:41:01;;;;;;;10.97;1.20;;;19.80;1.00;;;;;;5078848;28;20721;-74
2022/10/22 14:43:29;;;;;;;6.73;0.93;;;19.80;1.00;;;;;;5075876;28;20385;-74
2022/10/22 14:45:56;;;;;;;7.00;1.30;;;19.80;1.00;;;;;;5075529;28;20530;-74
2022/10/22 14:48:22;;;;;;;5.63;0.80;;;19.80;1.00;;;;;;5074294;28;20916;-74
2022/10/22 14:50:48;;;;;;;4.43;1.00;;;19.80;1.00;;;;;;5079003;28;20444;-74
2022/10/22 14:53:18;;;;;;;7.30;0.80;;;19.80;1.00;;;;;;5082663;28;20467;-74
2022/10/22 14:55:46;;;;;;;3.00;0.80;;;19.90;1.00;;;;;;5073759;28;20172;-74
2022/10/22 14:58:12;;;;;;;5.90;1.40;;;19.90;1.00;;;;;;5085844;28;20410;-73
2022/10/22 15:00:40;;;;;;;6.37;1.00;;;19.90;1.00;;;;;;5084467;28;20729;-74
2022/10/22 15:03:06;;;;;;;7.13;1.30;;;19.80;1.00;;;;;;5077902;28;20504;-74
2022/10/22 15:05:46;;;;;;;;;;;;;;;;;;;;;
2022/10/22 15:08:13;;;;;;;5.00;1.57;;;19.80;1.00;;;;;;5087996;28;20183;-75
2022/10/22 15:10:42;;;;;;;4.00;1.17;;;19.80;1.00;;;;;;5075814;28;20468;-74
2022/10/22 15:13:07;;;;;;;5.83;1.20;;;19.90;1.00;;;;;;5089061;28;20385;-74
2022/10/22 15:15:33;;;;;;;4.30;1.03;;;19.90;1.00;;;;;;5084345;28;20800;-74
2022/10/22 15:17:59;;;;;;;12.20;1.30;;;19.90;1.00;;;;;;5080789;28;20255;-74
2022/10/22 15:20:30;;;;;;;8.73;1.37;;;19.80;1.00;;;;;;5078849;28;20214;-74
2022/10/22 15:22:55;;;;;;;10.47;1.37;;;19.80;1.00;;;;;;5082197;28;20627;-74
2022/10/22 15:25:24;;;;;;;10.60;1.27;;;19.70;1.00;;;;;;5073561;28;20434;-74
2022/10/22 15:27:49;;;;;;;9.57;1.10;;;19.70;1.00;;;;;;5078740;28;20179;-74
2022/10/22 15:30:19;;;;;;;15.33;2.87;;;19.60;1.00;;;;;;5084065;28;20828;-74
2022/10/22 15:32:45;;;;;;;9.37;1.47;;;19.50;1.00;;;;;;5078145;28;20184;-73
2022/10/22 15:35:12;;;;;;;8.20;1.10;;;19.40;1.00;;;;;;5079055;28;20379;-75
2022/10/22 15:37:37;;;;;;;8.93;1.17;;;19.40;1.00;;;;;;5077784;28;20657;-73
2022/10/22 15:40:06;;;;;;;4.83;0.93;;;19.40;1.00;;;;;;5082634;28;20527;-74
2022/10/22 15:42:53;;;;;;;11.60;1.10;;;19.40;1.00;;;;;;5081610;28;20185;-85
2022/10/22 15:48:48;;;;;;;7.90;1.37;;;19.30;1.00;;;;;;5083279;28;21080;-79
2022/10/22 15:51:16;;;;;;;10.83;1.33;;;19.10;1.00;;;;;;5083708;28;20813;-80
2022/10/22 15:54:23;;;;;;;19.53;1.30;;;19.00;1.00;;;;;;5081741;28;20439;-89